Time;durP1;ratioP1;P1;durP2;ratioP2;P2;SDS_P1;SDS_P2;PMS_P1;PMS_P2;Temp;Humidity;BMP_temperature;BMP_pressure;BME280_temperature;BME280_humidity;BME280_pressure;Samples;Min_cycle;Max_cycle;Signal;HPM_P1;HPM_P2
2021/01/29 00:01:26;;;;;;;1.83;1.20;;;12.30;79.80;;;;;;6186231;23;20413;-74
2021/01/29 00:03:52;;;;;;;2.47;1.60;;;12.30;80.40;;;;;;6185945;23;20943;-75
2021/01/29 00:06:19;;;;;;;1.10;1.00;;;12.30;79.90;;;;;;6186197;23;20413;-74
2021/01/29 00:08:46;;;;;;;1.87;1.30;;;12.20;79.80;;;;;;6183599;23;20512;-75
2021/01/29 00:11:12;;;;;;;1.60;1.20;;;12.20;79.80;;;;;;6185561;23;20445;-75
2021/01/29 00:13:39;;;;;;;2.90;2.80;;;12.20;79.90;;;;;;6186023;23;20438;-75
2021/01/29 00:16:07;;;;;;;2.10;1.40;;;12.10;80.00;;;;;;6186090;23;20413;-75
2021/01/29 00:18:34;;;;;;;1.50;1.40;;;12.10;80.10;;;;;;6185638;23;20426;-75
2021/01/29 00:21:00;;;;;;;1.40;1.27;;;12.10;80.10;;;;;;6185308;23;20414;-74
2021/01/29 00:23:27;;;;;;;1.67;1.00;;;12.10;80.20;;;;;;6185864;23;20413;-74
2021/01/29 00:25:54;;;;;;;1.53;1.43;;;12.10;80.20;;;;;;6185683;23;20414;-75
2021/01/29 00:28:22;;;;;;;1.47;0.87;;;12.00;80.00;;;;;;6185616;23;20480;-74
2021/01/29 00:30:50;;;;;;;1.53;1.40;;;12.00;80.10;;;;;;6185371;23;20467;-75
2021/01/29 00:33:19;;;;;;;1.00;1.00;;;11.90;80.00;;;;;;6185290;23;20421;-75
2021/01/29 00:35:46;;;;;;;1.27;1.17;;;11.80;80.10;;;;;;6183818;23;20418;-75
2021/01/29 00:38:13;;;;;;;2.57;2.07;;;11.80;80.40;;;;;;6185172;23;20420;-75
2021/01/29 00:40:41;;;;;;;1.27;1.17;;;11.80;80.70;;;;;;6185390;23;20410;-75
2021/01/29 00:43:08;;;;;;;1.37;1.27;;;11.70;80.80;;;;;;6185073;23;20412;-75
2021/01/29 00:45:37;;;;;;;0.70;0.70;;;11.70;81.20;;;;;;6185730;23;20418;-75
2021/01/29 00:48:05;;;;;;;1.47;1.03;;;11.70;81.60;;;;;;6184950;23;20468;-75
2021/01/29 00:50:32;;;;;;;1.10;0.90;;;11.70;82.00;;;;;;6185917;23;20414;-76
2021/01/29 00:53:00;;;;;;;1.43;0.83;;;11.80;82.40;;;;;;6185201;23;20406;-75
2021/01/29 00:55:27;;;;;;;0.70;0.70;;;11.80;82.60;;;;;;6185286;23;20414;-76
2021/01/29 00:57:54;;;;;;;1.23;0.97;;;11.80;82.90;;;;;;6185593;23;20413;-75
2021/01/29 01:00:21;;;;;;;0.90;0.90;;;11.90;83.10;;;;;;6186060;23;20465;-75
2021/01/29 01:02:48;;;;;;;1.00;0.90;;;11.90;83.30;;;;;;6184339;23;20410;-75
2021/01/29 01:05:18;;;;;;;1.13;0.97;;;12.00;83.20;;;;;;6184837;23;20912;-75
2021/01/29 01:07:45;;;;;;;1.23;0.87;;;12.00;83.10;;;;;;6184469;23;20458;-75
2021/01/29 01:10:12;;;;;;;1.47;1.10;;;12.10;83.20;;;;;;6185652;23;20484;-75
2021/01/29 01:12:39;;;;;;;1.30;1.13;;;12.10;83.00;;;;;;6185702;23;20441;-74
2021/01/29 01:15:09;;;;;;;1.07;0.97;;;12.10;82.90;;;;;;6185662;23;20417;-74
2021/01/29 01:17:36;;;;;;;1.10;1.00;;;12.10;82.90;;;;;;6184980;23;20421;-74
2021/01/29 01:20:03;;;;;;;0.80;0.80;;;12.10;82.90;;;;;;6184975;23;20414;-74
2021/01/29 01:22:30;;;;;;;1.17;1.00;;;12.10;82.90;;;;;;6184974;23;20406;-73
2021/01/29 01:24:57;;;;;;;1.27;1.20;;;12.10;83.20;;;;;;6185234;23;20413;-74
2021/01/29 01:27:24;;;;;;;1.07;1.00;;;12.10;82.90;;;;;;6185204;23;20454;-74
2021/01/29 01:29:50;;;;;;;1.70;1.40;;;12.20;82.90;;;;;;6183350;23;20410;-73
2021/01/29 01:32:17;;;;;;;1.37;1.27;;;12.10;82.80;;;;;;6184876;23;20416;-73
2021/01/29 01:34:43;;;;;;;1.90;1.10;;;12.10;82.80;;;;;;6184772;23;20464;-75
2021/01/29 01:37:10;;;;;;;1.10;1.10;;;12.10;82.90;;;;;;6184133;23;20420;-75
2021/01/29 01:39:36;;;;;;;1.80;1.60;;;12.10;82.90;;;;;;6185337;23;20410;-74
2021/01/29 01:42:05;;;;;;;1.67;1.33;;;12.10;83.10;;;;;;6184783;23;20472;-75
2021/01/29 01:44:34;;;;;;;1.73;1.20;;;12.10;83.30;;;;;;6185335;23;20799;-76
2021/01/29 01:47:06;;;;;;;1.30;1.20;;;12.10;83.30;;;;;;6184136;23;20445;-76
2021/01/29 01:49:34;;;;;;;1.03;1.03;;;12.10;83.30;;;;;;6184862;23;20414;-76
2021/01/29 01:52:04;;;;;;;1.30;1.20;;;12.00;83.20;;;;;;6185317;23;20410;-77
2021/01/29 01:54:37;;;;;;;2.23;1.20;;;12.00;83.30;;;;;;6185049;23;20415;-77
2021/01/29 01:57:06;;;;;;;1.60;0.90;;;12.00;83.40;;;;;;6183240;23;20444;-76
2021/01/29 01:59:36;;;;;;;1.23;1.17;;;12.00;83.60;;;;;;6184506;23;20430;-76
2021/01/29 02:02:04;;;;;;;1.13;1.10;;;12.00;83.80;;;;;;6184475;23;20410;-76
2021/01/29 02:04:35;;;;;;;1.67;1.57;;;12.00;83.80;;;;;;6184283;23;20526;-76
2021/01/29 02:07:14;;;;;;;1.27;1.17;;;12.00;84.60;;;;;;6184458;23;20967;-76
2021/01/29 02:09:45;;;;;;;1.40;1.20;;;12.00;84.10;;;;;;6185039;23;20823;-76
2021/01/29 02:12:13;;;;;;;1.27;1.20;;;12.00;84.10;;;;;;6184673;23;20752;-76
2021/01/29 02:14:39;;;;;;;3.10;2.90;;;11.90;84.00;;;;;;6184585;23;20402;-76
2021/01/29 02:17:12;;;;;;;1.70;1.60;;;11.90;84.00;;;;;;6184363;23;20425;-76
2021/01/29 02:20:30;;;;;;;1.53;1.30;;;11.90;84.10;;;;;;6184822;23;20413;-76
2021/01/29 02:23:30;;;;;;;1.10;1.00;;;11.90;84.20;;;;;;6182609;23;20417;-75
2021/01/29 02:26:25;;;;;;;1.37;1.27;;;11.90;84.50;;;;;;6184763;23;20440;-75
2021/01/29 02:29:36;;;;;;;3.53;1.10;;;11.90;84.60;;;;;;6184810;23;20456;-75
2021/01/29 02:32:40;;;;;;;1.10;1.00;;;11.90;84.70;;;;;;6041704;23;20417;-75
2021/01/29 02:35:52;;;;;;;1.00;1.00;;;11.90;84.80;;;;;;6184155;23;20740;-75
2021/01/29 02:38:49;;;;;;;1.27;1.10;;;11.90;85.20;;;;;;6184203;23;20413;-75
2021/01/29 02:41:27;;;;;;;1.57;0.80;;;11.90;85.30;;;;;;6184199;23;20409;-75
2021/01/29 02:44:20;;;;;;;1.20;1.07;;;11.90;85.10;;;;;;6184858;23;20803;-75
2021/01/29 02:46:52;;;;;;;1.17;1.03;;;11.90;85.20;;;;;;6184207;23;20413;-75
2021/01/29 02:49:26;;;;;;;0.80;0.80;;;11.90;85.30;;;;;;6182327;23;20750;-74
2021/01/29 02:51:59;;;;;;;0.70;0.70;;;11.90;85.20;;;;;;6184596;23;20420;-75
2021/01/29 02:54:35;;;;;;;1.00;0.90;;;11.90;85.20;;;;;;6184310;23;20414;-75
2021/01/29 02:57:06;;;;;;;0.80;0.70;;;11.90;85.20;;;;;;6184727;23;20413;-75
2021/01/29 02:59:37;;;;;;;0.83;0.80;;;11.90;85.10;;;;;;6184423;23;20471;-75
2021/01/29 03:02:07;;;;;;;0.70;0.70;;;11.90;85.00;;;;;;6184384;23;20509;-76
2021/01/29 03:04:38;;;;;;;1.33;1.00;;;11.90;85.00;;;;;;6184431;23;20904;-75
2021/01/29 03:07:08;;;;;;;2.10;1.03;;;12.00;85.20;;;;;;6184697;23;20819;-75
2021/01/29 03:09:42;;;;;;;1.10;0.80;;;12.00;85.00;;;;;;6184109;23;20469;-75
2021/01/29 03:12:14;;;;;;;2.00;0.87;;;12.00;84.80;;;;;;6184336;23;20416;-75
2021/01/29 03:14:45;;;;;;;0.93;0.90;;;12.00;84.80;;;;;;6184653;23;20738;-76
2021/01/29 03:17:18;;;;;;;1.53;0.90;;;12.00;84.80;;;;;;6182116;23;20410;-76
2021/01/29 03:19:52;;;;;;;0.70;0.70;;;12.00;84.60;;;;;;6184854;23;20418;-75
2021/01/29 03:22:24;;;;;;;1.07;1.00;;;12.00;84.80;;;;;;6184680;23;20410;-74
2021/01/29 03:24:55;;;;;;;1.07;1.03;;;12.00;84.70;;;;;;6184824;23;20764;-74
2021/01/29 03:27:25;;;;;;;1.07;1.00;;;12.00;84.70;;;;;;6184579;23;20469;-74
2021/01/29 03:29:59;;;;;;;0.80;0.70;;;12.00;84.60;;;;;;6184339;23;20410;-74
2021/01/29 03:32:28;;;;;;;0.93;0.90;;;12.10;84.70;;;;;;6185772;23;20417;-75
2021/01/29 03:35:02;;;;;;;1.27;0.87;;;12.10;84.60;;;;;;6186058;23;20415;-74
2021/01/29 03:37:36;;;;;;;1.00;0.90;;;12.10;84.50;;;;;;6185797;23;20725;-75
2021/01/29 03:40:05;;;;;;;0.80;0.80;;;12.10;84.40;;;;;;6186427;23;20468;-75
2021/01/29 03:42:37;;;;;;;1.57;1.10;;;12.10;84.30;;;;;;6184370;23;21002;-75
2021/01/29 03:45:14;;;;;;;0.70;0.70;;;12.10;84.00;;;;;;6186396;23;20435;-75
2021/01/29 03:47:52;;;;;;;1.20;0.90;;;12.10;84.00;;;;;;6185600;23;20453;-75
2021/01/29 03:50:29;;;;;;;0.83;0.83;;;12.00;83.80;;;;;;6186475;23;20410;-75
2021/01/29 03:53:10;;;;;;;1.23;0.70;;;12.10;84.10;;;;;;6185915;23;20920;-76
2021/01/29 03:55:44;;;;;;;0.97;0.97;;;12.10;84.20;;;;;;6185587;23;20497;-76
2021/01/29 03:58:15;;;;;;;1.00;0.90;;;12.10;84.10;;;;;;6185597;23;20944;-76
2021/01/29 04:00:53;;;;;;;0.70;0.70;;;12.10;84.00;;;;;;6185872;23;20465;-77
2021/01/29 04:03:30;;;;;;;1.20;0.97;;;12.10;83.60;;;;;;6186030;23;20935;-76
2021/01/29 04:06:04;;;;;;;0.80;0.80;;;12.10;83.90;;;;;;6185546;23;20413;-77
2021/01/29 04:08:42;;;;;;;0.90;0.73;;;12.10;83.80;;;;;;6185162;23;20537;-76
2021/01/29 04:11:18;;;;;;;0.80;0.80;;;12.10;83.90;;;;;;6184986;23;20537;-77
2021/01/29 04:13:49;;;;;;;1.30;1.20;;;12.10;84.00;;;;;;6185058;23;20405;-76
2021/01/29 04:16:25;;;;;;;0.80;0.80;;;12.10;84.10;;;;;;6186433;23;20484;-78
2021/01/29 04:18:56;;;;;;;0.60;0.60;;;12.00;84.00;;;;;;6185853;23;20892;-78
2021/01/29 04:21:29;;;;;;;0.80;0.80;;;12.00;84.10;;;;;;6186326;23;20484;-76
2021/01/29 04:24:02;;;;;;;0.70;0.70;;;12.00;84.10;;;;;;6185503;23;20461;-76
2021/01/29 04:26:40;;;;;;;0.87;0.87;;;12.00;84.20;;;;;;6185628;23;20904;-76
2021/01/29 04:29:11;;;;;;;0.77;0.77;;;12.10;84.40;;;;;;6184840;23;20955;-76
2021/01/29 04:31:39;;;;;;;0.70;0.70;;;12.10;84.20;;;;;;6185403;23;20413;-76
2021/01/29 04:34:09;;;;;;;1.07;0.90;;;12.10;84.10;;;;;;6185641;23;20413;-76
2021/01/29 04:36:37;;;;;;;0.60;0.60;;;12.10;84.00;;;;;;6183066;23;20420;-76
2021/01/29 04:39:08;;;;;;;0.90;0.63;;;12.10;83.90;;;;;;6185380;23;20414;-76
2021/01/29 04:42:00;;;;;;;2.20;0.70;;;12.00;83.40;;;;;;6185969;23;20406;-76
2021/01/29 04:44:36;;;;;;;2.93;0.87;;;12.00;83.60;;;;;;6184943;23;20411;-75
2021/01/29 04:47:21;;;;;;;3.43;0.60;;;12.00;83.70;;;;;;6184533;23;20410;-76
2021/01/29 04:50:09;;;;;;;0.73;0.50;;;12.00;83.30;;;;;;6185633;23;20410;-76
2021/01/29 04:53:01;;;;;;;0.73;0.60;;;12.00;83.50;;;;;;6185212;23;20410;-76
2021/01/29 04:55:37;;;;;;;0.90;0.73;;;12.00;83.20;;;;;;6185641;23;20406;-76
2021/01/29 04:58:08;;;;;;;0.67;0.67;;;11.90;83.10;;;;;;6185468;23;20410;-76
2021/01/29 05:01:22;;;;;;;0.90;0.87;;;11.80;83.40;;;;;;6184986;23;20426;-76
2021/01/29 05:04:27;;;;;;;1.17;0.70;;;11.80;83.50;;;;;;6165448;23;20445;-76
2021/01/29 05:07:13;;;;;;;0.60;0.60;;;11.80;83.80;;;;;;6184896;23;20912;-76
2021/01/29 05:09:55;;;;;;;0.97;0.83;;;11.80;84.00;;;;;;6184312;23;20434;-77
2021/01/29 05:12:40;;;;;;;0.77;0.77;;;11.80;84.10;;;;;;6184970;23;20410;-76
2021/01/29 05:15:27;;;;;;;0.83;0.83;;;11.80;84.00;;;;;;6183095;23;20414;-76
2021/01/29 05:18:26;;;;;;;0.60;0.60;;;11.80;84.20;;;;;;6184646;23;20971;-77
2021/01/29 05:21:14;;;;;;;0.50;0.50;;;11.90;84.30;;;;;;6185161;23;20417;-76
2021/01/29 05:24:09;;;;;;;0.77;0.77;;;11.90;84.20;;;;;;6184164;23;20418;-77
2021/01/29 05:27:09;;;;;;;0.63;0.63;;;11.90;83.90;;;;;;6184913;23;20406;-76
2021/01/29 05:29:56;;;;;;;1.27;0.70;;;11.80;84.20;;;;;;6184098;23;20417;-76
2021/01/29 05:32:54;;;;;;;1.80;0.60;;;11.70;85.10;;;;;;6184902;23;20448;-76
2021/01/29 05:35:54;;;;;;;0.70;0.70;;;11.50;86.30;;;;;;6184424;23;20492;-76
2021/01/29 05:38:55;;;;;;;0.73;0.60;;;11.40;87.50;;;;;;6184619;23;20406;-76
2021/01/29 05:42:12;;;;;;;0.70;0.63;;;11.30;88.30;;;;;;6184251;23;20457;-77
2021/01/29 05:45:06;;;;;;;1.03;0.97;;;11.30;89.20;;;;;;6059286;23;20507;-76
2021/01/29 05:48:05;;;;;;;2.00;0.40;;;11.10;89.60;;;;;;6183547;23;20966;-77
2021/01/29 05:50:52;;;;;;;0.60;0.60;;;11.10;90.00;;;;;;6184614;23;20413;-77
2021/01/29 05:53:39;;;;;;;0.57;0.57;;;11.10;90.20;;;;;;6185108;23;20410;-76
2021/01/29 05:56:14;;;;;;;0.80;0.80;;;11.10;90.00;;;;;;6184381;23;20413;-76
2021/01/29 05:58:59;;;;;;;0.70;0.70;;;11.10;90.00;;;;;;6182539;23;20520;-76
2021/01/29 06:01:49;;;;;;;1.40;0.80;;;11.10;90.00;;;;;;6184395;23;20414;-77
2021/01/29 06:04:49;;;;;;;0.70;0.70;;;11.00;89.80;;;;;;6184363;23;20912;-76
2021/01/29 06:07:49;;;;;;;2.30;0.90;;;11.00;90.00;;;;;;6184556;23;20409;-76
2021/01/29 06:10:57;;;;;;;0.83;0.77;;;11.00;89.70;;;;;;6184173;23;20434;-75
2021/01/29 06:13:50;;;;;;;0.67;0.67;;;11.00;90.00;;;;;;6184155;23;20417;-76
2021/01/29 06:16:48;;;;;;;1.03;0.70;;;11.00;89.80;;;;;;6184168;23;20412;-76
2021/01/29 06:19:53;;;;;;;2.17;1.00;;;11.10;89.50;;;;;;6184500;23;20754;-76
2021/01/29 06:23:01;;;;;;;1.77;0.90;;;11.10;89.50;;;;;;6153796;23;20424;-76
2021/01/29 06:25:45;;;;;;;1.33;0.87;;;11.00;90.20;;;;;;6150007;23;20421;-76
2021/01/29 06:28:33;;;;;;;6.50;1.53;;;10.90;90.80;;;;;;6183842;23;20788;-76
2021/01/29 06:31:40;;;;;;;1.30;1.20;;;10.90;91.30;;;;;;6184045;23;20915;-77
2021/01/29 06:34:25;;;;;;;1.87;1.00;;;11.00;91.50;;;;;;6064143;23;20450;-78
2021/01/29 06:37:11;;;;;;;1.07;0.93;;;11.00;91.70;;;;;;6064184;23;20444;-76
2021/01/29 06:40:03;;;;;;;1.23;1.13;;;11.00;91.90;;;;;;6148494;23;20760;-76
2021/01/29 06:43:05;;;;;;;1.03;0.93;;;11.00;92.20;;;;;;6184690;23;20456;-76
2021/01/29 06:46:12;;;;;;;1.50;0.80;;;11.00;92.40;;;;;;6183778;23;20405;-76
2021/01/29 06:49:18;;;;;;;2.70;2.00;;;11.10;92.50;;;;;;6183892;23;20460;-78
2021/01/29 06:52:07;;;;;;;1.90;1.37;;;11.10;92.50;;;;;;6182692;23;20409;-76
2021/01/29 06:55:09;;;;;;;2.47;2.10;;;11.10;92.60;;;;;;6183651;23;20417;-77
2021/01/29 06:58:11;;;;;;;0.93;0.77;;;11.10;92.70;;;;;;6184514;23;20696;-75
2021/01/29 07:00:55;;;;;;;1.70;0.70;;;11.00;92.80;;;;;;6073570;23;20737;-77
2021/01/29 07:03:44;;;;;;;0.93;0.83;;;10.90;93.00;;;;;;6184454;23;20780;-77
2021/01/29 07:06:33;;;;;;;1.83;0.80;;;10.80;93.00;;;;;;6185830;23;20739;-76
2021/01/29 07:09:18;;;;;;;1.90;0.93;;;10.80;93.30;;;;;;6186897;23;20453;-76
2021/01/29 07:12:10;;;;;;;0.70;0.70;;;10.80;93.20;;;;;;6185781;23;20491;-76
2021/01/29 07:14:57;;;;;;;0.93;0.40;;;10.70;92.90;;;;;;6180358;23;20436;-76
2021/01/29 07:17:58;;;;;;;0.60;0.50;;;10.70;92.90;;;;;;6185826;23;20417;-76
2021/01/29 07:20:55;;;;;;;0.90;0.90;;;10.60;92.40;;;;;;6183416;23;20424;-76
2021/01/29 07:23:49;;;;;;;1.17;1.07;;;10.80;92.70;;;;;;6185302;23;20413;-74
2021/01/29 07:26:30;;;;;;;0.97;0.80;;;10.80;92.30;;;;;;6185799;23;20416;-75
2021/01/29 07:29:17;;;;;;;1.03;0.93;;;11.00;92.20;;;;;;6185935;23;20532;-75
2021/01/29 07:31:53;;;;;;;1.67;1.00;;;11.10;92.00;;;;;;6186429;23;20745;-75
2021/01/29 07:34:42;;;;;;;1.53;1.43;;;11.20;92.00;;;;;;6185716;23;20817;-76
2021/01/29 07:37:41;;;;;;;1.33;1.00;;;11.30;91.90;;;;;;6179959;23;21249;-75
2021/01/29 07:40:32;;;;;;;0.80;0.80;;;11.40;91.60;;;;;;6184309;23;20416;-75
2021/01/29 07:43:11;;;;;;;0.63;0.63;;;11.40;91.00;;;;;;6183631;23;20943;-75
2021/01/29 07:45:50;;;;;;;4.37;1.00;;;11.30;90.60;;;;;;6182007;23;20413;-75
2021/01/29 07:48:46;;;;;;;0.63;0.50;;;11.40;90.80;;;;;;6184482;23;20463;-75
2021/01/29 07:51:25;;;;;;;0.60;0.50;;;11.40;90.10;;;;;;6159571;23;20472;-75
2021/01/29 07:54:13;;;;;;;0.60;0.60;;;11.40;90.00;;;;;;6183866;23;20414;-75
2021/01/29 07:57:00;;;;;;;1.67;0.70;;;11.40;89.80;;;;;;6184742;23;20414;-75
2021/01/29 07:59:46;;;;;;;0.60;0.60;;;11.40;89.10;;;;;;6184767;23;20406;-75
2021/01/29 08:02:21;;;;;;;1.03;0.93;;;11.40;88.30;;;;;;6184077;23;20448;-75
2021/01/29 08:05:08;;;;;;;2.37;0.87;;;11.50;88.70;;;;;;6184969;23;20412;-76
2021/01/29 08:07:38;;;;;;;1.37;0.53;;;11.50;88.90;;;;;;6183902;23;20442;-76
2021/01/29 08:10:09;;;;;;;0.60;0.60;;;11.60;88.50;;;;;;6184090;23;20441;-75
2021/01/29 08:12:50;;;;;;;1.33;0.60;;;11.60;88.10;;;;;;6183063;23;20402;-76
2021/01/29 08:15:29;;;;;;;4.00;1.07;;;11.60;87.80;;;;;;6184707;23;20476;-76
2021/01/29 08:18:39;;;;;;;1.53;1.13;;;11.70;87.80;;;;;;6183947;23;20422;-75
2021/01/29 08:21:27;;;;;;;2.40;1.07;;;11.80;87.50;;;;;;6184443;23;20480;-76
2021/01/29 08:24:02;;;;;;;1.80;1.00;;;11.80;86.20;;;;;;6184140;23;20414;-76
2021/01/29 08:26:44;;;;;;;1.30;0.70;;;11.80;85.40;;;;;;6184434;23;20409;-75
2021/01/29 08:29:58;;;;;;;2.10;0.80;;;11.80;85.10;;;;;;6184348;23;20457;-75
2021/01/29 08:32:42;;;;;;;0.70;0.70;;;11.80;85.70;;;;;;6132733;23;20425;-75
2021/01/29 08:35:35;;;;;;;4.27;1.00;;;11.90;86.30;;;;;;6183994;23;20414;-76
2021/01/29 08:38:10;;;;;;;0.60;0.60;;;11.90;86.20;;;;;;6140708;23;20418;-76
2021/01/29 08:40:48;;;;;;;0.70;0.50;;;11.90;85.10;;;;;;6183102;23;20783;-76
2021/01/29 08:43:57;;;;;;;0.50;0.50;;;11.90;84.00;;;;;;6184975;23;20417;-75
2021/01/29 08:46:43;;;;;;;1.00;0.90;;;11.80;84.40;;;;;;6175429;23;20471;-75
2021/01/29 08:49:45;;;;;;;2.00;0.73;;;11.80;84.90;;;;;;6184646;23;20485;-75
2021/01/29 08:52:22;;;;;;;0.70;0.70;;;11.80;84.60;;;;;;6184024;23;20967;-76
2021/01/29 08:55:04;;;;;;;1.53;0.87;;;11.70;83.40;;;;;;6184923;23;20780;-76
2021/01/29 08:57:46;;;;;;;0.90;0.90;;;11.70;83.70;;;;;;6185982;23;20414;-75
2021/01/29 09:00:23;;;;;;;0.90;0.90;;;11.60;83.30;;;;;;6185517;23;20406;-76
2021/01/29 09:02:56;;;;;;;1.13;0.80;;;11.60;82.20;;;;;;6184274;23;20417;-75
2021/01/29 09:05:26;;;;;;;1.10;0.83;;;11.60;81.60;;;;;;6184483;23;20414;-75
2021/01/29 09:07:58;;;;;;;1.23;1.13;;;11.60;81.60;;;;;;6182354;23;20454;-75
2021/01/29 09:10:38;;;;;;;0.60;0.60;;;11.80;82.10;;;;;;6185376;23;20409;-75
2021/01/29 09:13:09;;;;;;;1.33;0.70;;;12.00;81.70;;;;;;6184765;23;20410;-74
2021/01/29 09:15:47;;;;;;;1.00;0.90;;;12.10;81.70;;;;;;6184858;23;20451;-76
2021/01/29 09:18:19;;;;;;;0.70;0.70;;;12.10;79.40;;;;;;6184352;23;20444;-76
2021/01/29 09:20:51;;;;;;;0.97;0.87;;;12.10;78.60;;;;;;6184713;23;20437;-76
2021/01/29 09:23:24;;;;;;;0.83;0.83;;;12.10;78.90;;;;;;6184458;23;20446;-75
2021/01/29 09:26:00;;;;;;;1.20;1.20;;;12.10;79.20;;;;;;6184721;23;20410;-75
2021/01/29 09:28:31;;;;;;;7.60;1.10;;;12.00;78.80;;;;;;6184757;23;20507;-75
2021/01/29 09:31:06;;;;;;;4.20;1.43;;;12.10;78.90;;;;;;6184424;23;20478;-78
2021/01/29 09:33:38;;;;;;;4.33;1.23;;;12.20;78.90;;;;;;6184926;23;20892;-76
2021/01/29 09:36:13;;;;;;;0.63;0.63;;;12.20;77.80;;;;;;6182339;23;20418;-76
2021/01/29 09:38:48;;;;;;;0.53;0.53;;;12.30;78.30;;;;;;6184173;23;20492;-77
2021/01/29 09:41:19;;;;;;;0.93;0.90;;;12.20;75.70;;;;;;6185507;23;20424;-76
2021/01/29 09:43:55;;;;;;;3.47;2.40;;;12.20;76.10;;;;;;6184248;23;20430;-75
2021/01/29 09:46:27;;;;;;;2.33;1.10;;;12.30;75.90;;;;;;6184282;23;20413;-76
2021/01/29 09:49:03;;;;;;;1.20;1.10;;;12.50;75.90;;;;;;6184503;23;20449;-76
2021/01/29 09:51:49;;;;;;;1.13;1.13;;;12.60;75.40;;;;;;6184390;23;20950;-76
2021/01/29 09:54:22;;;;;;;5.57;1.30;;;12.80;74.60;;;;;;6184886;23;20410;-76
2021/01/29 09:56:55;;;;;;;4.33;1.40;;;12.90;72.40;;;;;;6183285;23;20414;-76
2021/01/29 09:59:36;;;;;;;2.30;1.43;;;13.00;71.30;;;;;;6181073;23;20418;-74
2021/01/29 10:02:12;;;;;;;2.13;1.00;;;13.10;71.80;;;;;;6181539;23;20441;-74
2021/01/29 10:04:59;;;;;;;2.47;1.23;;;13.30;71.30;;;;;;6182707;23;20756;-75
2021/01/29 10:07:28;;;;;;;4.23;1.27;;;13.30;70.90;;;;;;6182901;23;20414;-75
2021/01/29 10:10:04;;;;;;;1.83;1.13;;;13.30;68.80;;;;;;6183860;23;20434;-74
2021/01/29 10:12:34;;;;;;;2.50;1.13;;;13.30;68.80;;;;;;6183822;23;20398;-74
2021/01/29 10:15:08;;;;;;;1.70;1.43;;;13.30;67.80;;;;;;6183977;23;20490;-74
2021/01/29 10:17:41;;;;;;;0.80;0.80;;;13.30;66.80;;;;;;6184415;23;20428;-74
2021/01/29 10:20:11;;;;;;;3.10;1.00;;;13.20;64.40;;;;;;6183904;23;21067;-74
2021/01/29 10:22:58;;;;;;;4.93;1.30;;;12.90;64.90;;;;;;6184385;23;20414;-74
2021/01/29 10:25:44;;;;;;;1.17;1.07;;;12.80;65.80;;;;;;6178825;23;20418;-74
2021/01/29 10:28:18;;;;;;;5.70;1.57;;;12.70;64.60;;;;;;6183601;23;20453;-74
2021/01/29 10:30:57;;;;;;;5.07;1.70;;;12.50;65.00;;;;;;6182541;23;20410;-72
2021/01/29 10:33:28;;;;;;;2.43;1.50;;;12.50;66.40;;;;;;6183847;23;20406;-75
2021/01/29 10:35:59;;;;;;;1.93;1.23;;;12.70;67.10;;;;;;6183434;23;20464;-75
2021/01/29 10:38:38;;;;;;;2.00;1.37;;;12.90;67.10;;;;;;6184858;23;20932;-75
2021/01/29 10:41:12;;;;;;;3.80;1.50;;;13.10;66.10;;;;;;6184932;23;20904;-75
2021/01/29 10:43:49;;;;;;;3.90;1.83;;;13.10;63.50;;;;;;6186134;23;20460;-75
2021/01/29 10:46:57;;;;;;;2.50;1.80;;;13.30;63.70;;;;;;6186249;23;20468;-74
2021/01/29 10:49:30;;;;;;;2.73;1.23;;;13.60;62.90;;;;;;6184435;23;20450;-74
2021/01/29 10:52:06;;;;;;;3.07;1.30;;;13.90;62.80;;;;;;6186718;23;20414;-75
2021/01/29 10:54:38;;;;;;;3.50;2.27;;;14.10;61.10;;;;;;6186415;23;20409;-75
2021/01/29 10:57:12;;;;;;;2.00;1.17;;;14.40;61.50;;;;;;6186382;23;20469;-74
2021/01/29 10:59:48;;;;;;;1.90;1.47;;;14.90;59.40;;;;;;6184241;23;20424;-73
2021/01/29 11:02:28;;;;;;;3.10;1.80;;;15.20;58.70;;;;;;6185340;23;20420;-75
2021/01/29 11:04:59;;;;;;;2.77;1.30;;;15.40;58.70;;;;;;6186208;23;20737;-74
2021/01/29 11:07:30;;;;;;;4.67;2.13;;;15.20;56.20;;;;;;6185129;23;20410;-74
2021/01/29 11:10:04;;;;;;;2.60;1.60;;;15.10;57.40;;;;;;6184936;23;20478;-76
2021/01/29 11:12:36;;;;;;;4.80;1.57;;;15.10;57.70;;;;;;6184824;23;20422;-73
2021/01/29 11:15:26;;;;;;;3.83;1.60;;;14.90;56.80;;;;;;6187002;23;20411;-75
2021/01/29 11:17:57;;;;;;;2.33;1.17;;;14.60;57.50;;;;;;6181690;23;20875;-75
2021/01/29 11:20:29;;;;;;;3.33;1.60;;;14.40;57.00;;;;;;6184773;23;20449;-75
2021/01/29 11:23:03;;;;;;;4.13;1.60;;;14.20;58.10;;;;;;6185356;23;20438;-75
2021/01/29 11:25:55;;;;;;;2.60;1.30;;;14.00;58.10;;;;;;6183946;23;20429;-74
2021/01/29 11:28:35;;;;;;;4.93;1.90;;;14.00;58.60;;;;;;6185982;23;20447;-74
2021/01/29 11:31:09;;;;;;;4.80;2.30;;;13.80;58.40;;;;;;6185924;23;20412;-73
2021/01/29 11:33:39;;;;;;;4.53;2.93;;;13.60;58.70;;;;;;6185495;23;20961;-73
2021/01/29 11:36:16;;;;;;;1.73;1.17;;;13.70;59.70;;;;;;6185787;23;20406;-73
2021/01/29 11:38:52;;;;;;;5.43;2.10;;;14.00;59.90;;;;;;6185951;23;20414;-74
2021/01/29 11:41:34;;;;;;;3.87;3.37;;;14.10;58.70;;;;;;6186197;23;20537;-73
2021/01/29 11:44:16;;;;;;;3.53;1.40;;;14.10;58.50;;;;;;6185823;23;20406;-74
2021/01/29 11:46:51;;;;;;;1.53;1.10;;;14.00;58.60;;;;;;6185987;23;20414;-75
2021/01/29 11:49:22;;;;;;;4.87;1.30;;;14.10;58.80;;;;;;6185785;23;20445;-75
2021/01/29 11:52:07;;;;;;;3.87;1.73;;;14.10;58.90;;;;;;6183490;23;20414;-73
2021/01/29 11:54:41;;;;;;;10.47;5.50;;;14.10;58.80;;;;;;6186104;23;20513;-73
2021/01/29 11:57:13;;;;;;;5.60;3.40;;;14.00;59.20;;;;;;6186190;23;20736;-73
2021/01/29 11:59:49;;;;;;;2.63;1.63;;;14.20;60.90;;;;;;6185914;23;20410;-75
2021/01/29 12:02:28;;;;;;;5.10;1.43;;;14.40;58.70;;;;;;6185257;23;20410;-76
2021/01/29 12:05:11;;;;;;;6.73;2.97;;;14.40;57.90;;;;;;6186017;23;20414;-76
2021/01/29 12:07:45;;;;;;;2.40;1.13;;;14.50;58.90;;;;;;6185458;23;20931;-76
2021/01/29 12:10:19;;;;;;;4.97;1.87;;;14.60;59.00;;;;;;6185330;23;20759;-75
2021/01/29 12:13:00;;;;;;;5.33;2.00;;;14.60;57.80;;;;;;6185803;23;20413;-74
2021/01/29 12:15:36;;;;;;;3.10;1.60;;;14.50;57.60;;;;;;6185751;23;20448;-75
2021/01/29 12:18:07;;;;;;;11.37;2.17;;;14.30;57.20;;;;;;6185845;23;20414;-74
2021/01/29 12:20:37;;;;;;;2.80;1.07;;;14.30;57.40;;;;;;6184149;23;20465;-74
2021/01/29 12:23:14;;;;;;;4.47;1.23;;;13.90;55.60;;;;;;6185045;23;20490;-74
2021/01/29 12:26:08;;;;;;;1.40;0.90;;;13.60;56.50;;;;;;6185509;23;21241;-74
2021/01/29 12:28:53;;;;;;;4.90;1.27;;;13.70;56.80;;;;;;6185266;23;20454;-75
2021/01/29 12:31:31;;;;;;;2.93;1.10;;;13.90;57.20;;;;;;6179799;23;20504;-75
2021/01/29 12:34:05;;;;;;;2.43;1.03;;;14.10;57.10;;;;;;6185294;23;20413;-75
2021/01/29 12:36:35;;;;;;;3.87;1.00;;;14.20;56.30;;;;;;6185185;23;20893;-75
2021/01/29 12:39:08;;;;;;;13.53;2.10;;;14.20;56.00;;;;;;6185097;23;20437;-75
2021/01/29 12:41:44;;;;;;;7.60;2.60;;;14.10;55.40;;;;;;6184713;23;20398;-74
2021/01/29 12:44:28;;;;;;;15.33;3.37;;;13.90;56.30;;;;;;6185610;23;20743;-74
2021/01/29 12:47:03;;;;;;;4.10;1.30;;;14.00;57.00;;;;;;6182656;23;20417;-74
2021/01/29 12:49:38;;;;;;;3.93;1.47;;;13.80;56.50;;;;;;6185532;23;20500;-74
2021/01/29 12:52:13;;;;;;;2.17;1.40;;;13.80;57.40;;;;;;6185981;23;20422;-73
2021/01/29 12:54:45;;;;;;;2.73;1.40;;;13.90;58.00;;;;;;6185156;23;20464;-73
2021/01/29 12:57:15;;;;;;;5.27;1.40;;;13.90;57.70;;;;;;6185272;23;20912;-73
2021/01/29 12:59:49;;;;;;;4.63;1.83;;;13.80;57.80;;;;;;6184322;23;20414;-73
2021/01/29 13:02:40;;;;;;;4.43;1.87;;;13.80;57.80;;;;;;6185672;23;20410;-73
2021/01/29 13:05:22;;;;;;;3.37;1.00;;;13.70;58.30;;;;;;6184818;23;20787;-72
2021/01/29 13:08:16;;;;;;;2.17;1.43;;;13.60;58.60;;;;;;6185111;23;20448;-71
2021/01/29 13:10:48;;;;;;;3.80;1.20;;;13.70;58.30;;;;;;6185277;23;20468;-71
2021/01/29 13:13:20;;;;;;;2.67;1.20;;;13.70;58.40;;;;;;6183206;23;20410;-72
2021/01/29 13:16:01;;;;;;;4.40;1.77;;;13.70;58.10;;;;;;6185225;23;20414;-71
2021/01/29 13:18:45;;;;;;;2.80;1.20;;;13.80;58.80;;;;;;6185153;23;20927;-71
2021/01/29 13:21:23;;;;;;;1.03;0.90;;;13.90;58.60;;;;;;6185157;23;20923;-71
2021/01/29 13:23:50;;;;;;;1.13;1.00;;;13.80;58.80;;;;;;6185082;23;20410;-72
2021/01/29 13:26:30;;;;;;;2.00;0.80;;;14.00;59.00;;;;;;6185753;23;20441;-72
2021/01/29 13:29:02;;;;;;;0.90;0.70;;;14.00;58.90;;;;;;6185432;23;20787;-71
2021/01/29 13:31:34;;;;;;;0.70;0.70;;;13.90;59.00;;;;;;6185081;23;20410;-71
2021/01/29 13:34:12;;;;;;;2.60;1.40;;;13.80;58.70;;;;;;6187339;23;20410;-71
2021/01/29 13:36:40;;;;;;;1.13;0.70;;;13.80;59.10;;;;;;6186242;23;20497;-71
2021/01/29 13:39:15;;;;;;;1.13;0.60;;;13.80;58.90;;;;;;6182853;23;20414;-71
2021/01/29 13:41:46;;;;;;;1.70;1.10;;;13.60;59.40;;;;;;6185459;23;20420;-71
2021/01/29 13:44:30;;;;;;;1.30;1.10;;;13.60;59.80;;;;;;6184569;23;20406;-71
2021/01/29 13:46:57;;;;;;;1.53;0.73;;;13.60;59.50;;;;;;6185435;23;20432;-71